Aviation Digital Data Service (ADDS)

Output produced by METARs form (1209 UTC 24 March 2017)
found at http://www.aviationweather.gov/adds/metars/
 
FNBG 241100Z 29008KT 9999 FEW020 SCT100 30/24 Q1012
TAF FNBG 241030Z 2412/2424 33010KT 9999 FEW020 SCT050 
     TEMPO 2414/2418 29005G15KT SCT025 FEW030CB 
     PROB40 
     TEMPO 2418/2424 22010KT 7000 -TSRA SCT010 FEW020CB OVC025
       
TAF FNCA 241030Z 2412/2424 24010KT 9999 SCT025 
     TEMPO 2414/2418 BKN020 FEW025CB 
     BECMG 2418/2420 17005KT FEW015 BKN050
       
FNHU 241100Z 34005KT 9999 BKN016 21/17 Q1023
TAF FNHU 241030Z 2412/2424 08010KT 9999 BKN015 FEW025TCU 
     TEMPO 2413/2418 02005KT 5000 TSRA SCT010 FEW020CB BKN025 
     PROB30 
     TEMPO 2418/2424 VRB03KT 8000 -RADZ BKN015
       
TAF FNKU 241030Z 2412/2424 08010KT 9999 BKN015 
     TEMPO 2414/2419 02005KT 7000 -TSRA SCT010 FEW020CB BKN025 
     PROB30 
     TEMPO 2420/2424 VRB03KT 8000 -RADZ BKN015
       
FNLU 241200Z 29006KT 9999 FEW022 BKN090 33/24 Q1010 NOSIG
TAF FNLU 241030Z 2412/2518 29010KT 9999 FEW020 BKN050 
     TEMPO 2414/2418 SCT020 FEW025TCU 
     BECMG 2418/2420 23010KT SCT020 FEW030CB 
     BECMG 2500/2502 16005KT BKN020 
     PROB30 
     TEMPO 2504/2508 VRB03KT 9000 -DZ SCT018 BKN025 
     BECMG 2510/2512 29010KT FEW020 SCT050
       
FNUE 240900Z 32007KT 9999 BKN023 22/19 Q1021
TAF FNUE 241030Z 2412/2424 10010KT 9999 SCT030 
     TEMPO 2414/2418 BKN025 FEW030TCU 
     PROB30 
     TEMPO 2418/2424 05005KT 7000 -TSRA BKN020 FEW025CB
       
FNMA 240800Z 12006KT 9999 SCT007 BKN057 21/18 Q1019
TAF FNMA 241030Z 2412/2424 28010KT 9999 FEW010 BKN050 
     TEMPO 2414/2418 BKN015 FEW030CB 
     BECMG 2418/2420 34005KT
       
FNBC 240700Z 20009KT CAVOK 22/// Q////
TAF FNME 241030Z 2412/2424 06015KT 9999 SCT015 
     BECMG 2416/2418 12010KT SCT015 FEW025CB 
     PROB30 
     TEMPO 2418/2424 03005KT 7000 -TSRA BKN015 FEW020CB
       
TAF FNMO 241030Z 2412/2424 33010KT CAVOK 
     TEMPO 2414/2418 29015KT 9999 SCT018 
     BECMG 2417/2419 22010KT 9999 BKN015 FEW020CB 
     PROB30 
     TEMPO 2419/2424 7000 -SHRA
       
FNGI 241000Z 05006KT 9999 FEW012 28/18 Q1019
TAF FNGI 241030Z 2412/2424 05010KT 9999 FEW015 
     TEMPO 2414/2418 10015KT SCT015 FEW025TCU 
     BECMG 2418/2420 VRB03KT FEW015 BKN025
       
FNSA 241100Z 00000KT 9999 SCT025 BKN100 27/20 Q1018
TAF FNSA 241030Z 2412/2424 08005KT 9999 BKN025 FEW030TCU 
     TEMPO 2414/2420 VRB03KT 6000 -TSRA BKN020 FEW025CB 
     PROB30 
     TEMPO 2418/2424 8000 -RA BKN020
       
TAF FNSO 241030Z 2412/2424 22010KT 9999 SCT025 
     TEMPO 2414/2418 BKN020 FEW025CB 
     BECMG 2418/2420 14005KT FEW015 BKN050
       
FNSU 241100Z 25005KT 9999 FEW013 SCT060 28/// Q1014
FNUG 241100Z 09006KT 9999 FEW016 SCT090 26/21 Q1015